Time;durP1;ratioP1;P1;durP2;ratioP2;P2;SDS_P1;SDS_P2;PMS_P1;PMS_P2;Temp;Humidity;BMP_temperature;BMP_pressure;BME280_temperature;BME280_humidity;BME280_pressure;Samples;Min_cycle;Max_cycle;Signal;HPM_P1;HPM_P2
2023/10/23 00:02:20;;;;;;;1.90;1.00;;;12.80;99.90;;;;;;5008027;28;20181;-74
2023/10/23 00:04:47;;;;;;;0.77;0.67;;;12.80;99.90;;;;;;5019811;28;20217;-75
2023/10/23 00:07:12;;;;;;;1.70;1.25;;;12.80;99.90;;;;;;5016989;28;20281;-74
2023/10/23 00:09:38;;;;;;;0.77;0.57;;;12.80;99.90;;;;;;5013640;28;20247;-81
2023/10/23 00:12:04;;;;;;;1.83;1.05;;;12.80;99.90;;;;;;5010915;28;20185;-73
2023/10/23 00:14:29;;;;;;;1.33;1.00;;;12.80;99.90;;;;;;5019357;28;20235;-75
2023/10/23 00:16:55;;;;;;;1.30;0.80;;;12.80;99.90;;;;;;5018154;28;20262;-74
2023/10/23 00:19:21;;;;;;;0.93;0.75;;;12.80;99.90;;;;;;5018001;28;20601;-76
2023/10/23 00:21:47;;;;;;;4.47;1.03;;;12.80;99.90;;;;;;5019536;28;20240;-75
2023/10/23 00:24:13;;;;;;;2.10;1.00;;;12.80;99.90;;;;;;5025547;28;20235;-79
2023/10/23 00:26:39;;;;;;;4.23;0.80;;;12.70;99.90;;;;;;5023372;28;20220;-76
2023/10/23 00:29:04;;;;;;;0.57;0.57;;;12.70;99.90;;;;;;5024788;28;20705;-76
2023/10/23 00:31:30;;;;;;;1.50;0.97;;;12.60;99.90;;;;;;5016761;28;20208;-75
2023/10/23 00:33:55;;;;;;;0.73;0.73;;;12.50;99.90;;;;;;5013546;28;20282;-77
2023/10/23 00:36:21;;;;;;;1.03;0.70;;;12.50;99.90;;;;;;5020016;28;20212;-78
2023/10/23 00:38:47;;;;;;;4.33;1.13;;;12.60;99.90;;;;;;5022901;28;20200;-75
2023/10/23 00:41:12;;;;;;;1.07;0.80;;;12.60;99.90;;;;;;5022944;28;20222;-75
2023/10/23 00:43:38;;;;;;;0.73;0.70;;;12.50;99.90;;;;;;5021896;28;20851;-75
2023/10/23 00:46:12;;;;;;;1.30;1.13;;;12.40;99.90;;;;;;5024671;28;20219;-78
2023/10/23 00:48:37;;;;;;;2.60;1.07;;;12.40;99.90;;;;;;5023574;28;20213;-75
2023/10/23 00:51:04;;;;;;;2.80;1.50;;;12.40;99.90;;;;;;5022248;28;20184;-77
2023/10/23 00:53:33;;;;;;;3.00;0.90;;;12.40;99.90;;;;;;5013442;28;20182;-74
2023/10/23 00:56:00;;;;;;;1.87;1.00;;;12.30;99.90;;;;;;5005610;28;20209;-75
2023/10/23 00:58:27;;;;;;;0.70;0.70;;;12.30;99.90;;;;;;5022885;28;20267;-74
2023/10/23 01:00:55;;;;;;;1.10;0.90;;;12.30;99.90;;;;;;5021331;28;20208;-78
2023/10/23 01:03:20;;;;;;;1.20;0.80;;;12.30;99.90;;;;;;5018504;28;20213;-75
2023/10/23 01:05:46;;;;;;;1.67;1.07;;;12.30;99.90;;;;;;5013985;28;20180;-74
2023/10/23 01:08:12;;;;;;;2.50;1.20;;;12.30;99.90;;;;;;5021618;28;20226;-76
2023/10/23 01:10:37;;;;;;;2.10;1.10;;;12.20;99.90;;;;;;5019012;28;20313;-76
2023/10/23 01:13:07;;;;;;;3.77;1.13;;;12.20;99.90;;;;;;5017562;28;20257;-76
2023/10/23 01:15:33;;;;;;;1.33;1.00;;;12.20;99.90;;;;;;5019316;28;20224;-75
2023/10/23 01:17:59;;;;;;;1.53;0.87;;;12.10;99.90;;;;;;5023743;28;20238;-75
2023/10/23 01:20:27;;;;;;;3.07;0.93;;;12.10;99.90;;;;;;5021899;28;20273;-78
2023/10/23 01:23:00;;;;;;;2.30;0.90;;;12.10;99.90;;;;;;5024464;28;20212;-74
2023/10/23 01:25:27;;;;;;;2.97;1.00;;;12.00;99.90;;;;;;5018614;28;20288;-80
2023/10/23 01:27:53;;;;;;;2.53;1.10;;;12.10;99.90;;;;;;5019565;28;20219;-75
2023/10/23 01:30:19;;;;;;;3.43;1.40;;;12.10;99.90;;;;;;5020634;28;20213;-78
2023/10/23 01:32:45;;;;;;;1.57;1.00;;;12.10;99.90;;;;;;5007045;28;20185;-74
2023/10/23 01:35:11;;;;;;;1.87;1.17;;;12.10;99.90;;;;;;5023520;28;20277;-75
2023/10/23 01:37:37;;;;;;;2.10;1.33;;;12.10;99.90;;;;;;5017776;28;20213;-76
2023/10/23 01:40:04;;;;;;;1.63;0.93;;;12.10;99.90;;;;;;5013445;28;20217;-75
2023/10/23 01:42:30;;;;;;;1.03;0.93;;;12.10;99.90;;;;;;5019073;28;20212;-75
2023/10/23 01:44:57;;;;;;;2.50;1.10;;;12.00;99.90;;;;;;5035906;28;20735;-73
2023/10/23 01:47:23;;;;;;;2.83;1.53;;;12.00;99.90;;;;;;5023415;28;20729;-77
2023/10/23 01:49:49;;;;;;;1.10;1.00;;;12.00;99.90;;;;;;5019201;28;20592;-75
2023/10/23 01:52:15;;;;;;;2.87;1.20;;;12.00;99.90;;;;;;5022203;28;20200;-76
2023/10/23 01:54:41;;;;;;;3.60;0.87;;;11.90;99.90;;;;;;5020929;28;20610;-75
2023/10/23 01:57:08;;;;;;;1.00;0.90;;;11.90;99.90;;;;;;5011505;28;20272;-75
2023/10/23 01:59:33;;;;;;;1.57;1.10;;;11.90;99.90;;;;;;5015694;28;20775;-73
2023/10/23 02:01:59;;;;;;;1.40;0.97;;;11.90;99.90;;;;;;5020580;28;20291;-74
2023/10/23 02:04:26;;;;;;;1.17;0.97;;;11.90;99.90;;;;;;5020631;28;20229;-73
2023/10/23 02:06:52;;;;;;;2.77;1.10;;;11.90;99.90;;;;;;5024017;28;20223;-74
2023/10/23 02:09:17;;;;;;;1.93;1.10;;;11.90;99.90;;;;;;5018694;28;20213;-73
2023/10/23 02:11:43;;;;;;;4.57;1.33;;;11.90;99.90;;;;;;5023527;28;20783;-74
2023/10/23 02:14:08;;;;;;;1.70;1.10;;;11.90;99.90;;;;;;5011406;28;20305;-75
2023/10/23 02:16:34;;;;;;;3.73;1.30;;;11.90;99.90;;;;;;5017371;28;20252;-74
2023/10/23 02:19:00;;;;;;;1.70;1.00;;;11.90;99.90;;;;;;5019786;28;20728;-74
2023/10/23 02:21:25;;;;;;;3.07;1.27;;;11.90;99.90;;;;;;5017819;28;20212;-74
2023/10/23 02:23:51;;;;;;;1.53;1.13;;;11.90;99.90;;;;;;5020812;28;20181;-73
2023/10/23 02:26:18;;;;;;;2.40;1.00;;;11.90;99.90;;;;;;5023303;28;20262;-74
2023/10/23 02:28:44;;;;;;;2.30;1.07;;;11.90;99.90;;;;;;5018228;28;20287;-74
2023/10/23 02:31:10;;;;;;;2.10;1.70;;;11.80;99.90;;;;;;5023509;28;20204;-74
2023/10/23 02:33:36;;;;;;;3.07;1.37;;;11.80;99.90;;;;;;5017840;28;20711;-74
2023/10/23 02:36:02;;;;;;;1.23;0.90;;;11.80;99.90;;;;;;5023091;28;20177;-74
2023/10/23 02:38:28;;;;;;;6.40;1.00;;;11.80;99.90;;;;;;5020582;28;20212;-75
2023/10/23 02:40:54;;;;;;;1.30;1.10;;;11.70;99.90;;;;;;5022636;28;20216;-75
2023/10/23 02:43:20;;;;;;;1.13;0.90;;;11.70;99.90;;;;;;5019146;28;20208;-76
2023/10/23 02:45:47;;;;;;;2.87;1.40;;;11.70;99.90;;;;;;5012341;28;20240;-75
2023/10/23 02:48:13;;;;;;;1.43;0.97;;;11.70;99.90;;;;;;5018573;28;20228;-75
2023/10/23 02:50:38;;;;;;;1.77;1.20;;;11.60;99.90;;;;;;5011418;28;20224;-74
2023/10/23 02:53:06;;;;;;;3.23;1.20;;;11.60;99.90;;;;;;5011185;28;20304;-75
2023/10/23 02:55:32;;;;;;;1.30;1.00;;;11.60;99.90;;;;;;5016609;28;20216;-76
2023/10/23 02:57:57;;;;;;;2.20;1.27;;;11.60;99.90;;;;;;5018842;28;20231;-75
2023/10/23 03:00:24;;;;;;;2.10;1.10;;;11.60;99.90;;;;;;5019892;28;20220;-76
2023/10/23 03:02:49;;;;;;;3.13;1.10;;;11.60;99.90;;;;;;5018291;28;20199;-75
2023/10/23 03:05:16;;;;;;;1.87;1.00;;;11.60;99.90;;;;;;5015342;28;20208;-75
2023/10/23 03:07:42;;;;;;;2.40;1.03;;;11.60;99.90;;;;;;5014438;28;20257;-73
2023/10/23 03:10:09;;;;;;;2.70;1.17;;;11.50;99.90;;;;;;5020635;28;20212;-75
2023/10/23 03:12:38;;;;;;;3.53;1.23;;;11.50;99.90;;;;;;5017931;28;20306;-77
2023/10/23 03:15:04;;;;;;;2.47;1.30;;;11.50;99.90;;;;;;5017835;28;20581;-76
2023/10/23 03:17:30;;;;;;;1.93;1.33;;;11.50;99.90;;;;;;5019180;28;20254;-75
2023/10/23 03:19:56;;;;;;;1.80;1.60;;;11.40;99.90;;;;;;5021534;28;20238;-73
2023/10/23 03:22:22;;;;;;;3.53;1.17;;;11.40;99.90;;;;;;5017491;28;20225;-80
2023/10/23 03:24:47;;;;;;;1.83;1.20;;;11.40;99.90;;;;;;5021059;28;20634;-76
2023/10/23 03:27:13;;;;;;;1.50;1.10;;;11.30;99.90;;;;;;5023165;28;20228;-74
2023/10/23 03:29:42;;;;;;;3.00;1.40;;;11.30;99.90;;;;;;5018870;28;20721;-74
2023/10/23 03:32:08;;;;;;;1.90;1.00;;;11.30;99.90;;;;;;5015155;28;20232;-77
2023/10/23 03:34:33;;;;;;;1.90;1.20;;;11.20;99.90;;;;;;5012676;28;20299;-74
2023/10/23 03:36:59;;;;;;;3.40;1.10;;;11.20;99.90;;;;;;5020726;28;20201;-75
2023/10/23 03:39:25;;;;;;;2.27;1.20;;;11.20;99.90;;;;;;5016264;28;20713;-74
2023/10/23 03:41:50;;;;;;;2.53;1.30;;;11.20;99.90;;;;;;5019238;28;20663;-75
2023/10/23 03:44:16;;;;;;;2.73;1.30;;;11.20;99.90;;;;;;5020854;28;20287;-75
2023/10/23 03:46:41;;;;;;;2.10;1.37;;;11.20;99.90;;;;;;5018227;28;20589;-74
2023/10/23 03:49:07;;;;;;;3.83;1.40;;;11.10;99.90;;;;;;5021465;28;20242;-74
2023/10/23 03:51:32;;;;;;;2.07;1.20;;;11.10;99.90;;;;;;5018740;28;20213;-75
2023/10/23 03:53:59;;;;;;;1.80;1.30;;;11.10;99.90;;;;;;5018423;28;20232;-73
2023/10/23 03:56:24;;;;;;;4.00;1.60;;;11.10;99.90;;;;;;5014190;28;20173;-79
2023/10/23 03:58:50;;;;;;;2.50;1.60;;;11.10;99.90;;;;;;5014200;28;20243;-75
2023/10/23 04:01:16;;;;;;;3.93;2.40;;;11.10;99.90;;;;;;5017969;28;20757;-75
2023/10/23 04:03:41;;;;;;;2.23;1.70;;;11.10;99.90;;;;;;5015857;28;20570;-75
2023/10/23 04:06:07;;;;;;;3.20;2.00;;;11.10;99.90;;;;;;5020581;28;20184;-74
2023/10/23 04:08:32;;;;;;;2.40;1.90;;;11.10;99.90;;;;;;5019344;28;20239;-77
2023/10/23 04:10:59;;;;;;;3.03;1.83;;;11.10;99.90;;;;;;5021836;28;20200;-76
2023/10/23 04:13:25;;;;;;;6.40;2.00;;;11.10;99.90;;;;;;5018299;28;20224;-77
2023/10/23 04:15:56;;;;;;;2.17;1.80;;;11.10;99.90;;;;;;5015086;28;20279;-74
2023/10/23 04:18:23;;;;;;;2.97;1.73;;;11.10;99.90;;;;;;5021707;28;20709;-77
2023/10/23 04:20:49;;;;;;;2.63;1.73;;;11.10;99.90;;;;;;5023185;28;20224;-74
2023/10/23 04:23:14;;;;;;;3.27;1.70;;;11.10;99.90;;;;;;5016391;28;20208;-75
2023/10/23 04:25:40;;;;;;;3.90;1.90;;;11.10;99.90;;;;;;5015639;28;20216;-76
2023/10/23 04:28:06;;;;;;;2.17;1.60;;;11.00;99.90;;;;;;5018804;28;20230;-75
2023/10/23 04:30:31;;;;;;;2.93;1.80;;;11.00;99.90;;;;;;5019107;28;20219;-74
2023/10/23 04:32:57;;;;;;;2.87;1.70;;;11.00;99.90;;;;;;5019979;28;20192;-74
2023/10/23 04:35:22;;;;;;;3.77;1.50;;;11.00;99.90;;;;;;5020239;28;20184;-77
2023/10/23 04:37:48;;;;;;;2.17;1.83;;;11.00;99.90;;;;;;5010100;28;20231;-75
2023/10/23 04:40:14;;;;;;;3.03;1.87;;;11.00;99.90;;;;;;5018159;28;20204;-75
2023/10/23 04:42:39;;;;;;;3.00;2.13;;;11.00;99.90;;;;;;5014871;28;20308;-75
2023/10/23 04:45:06;;;;;;;3.13;2.17;;;11.00;99.90;;;;;;5019607;28;20168;-75
2023/10/23 04:47:31;;;;;;;5.67;1.73;;;11.00;99.90;;;;;;5017527;28;20288;-76
2023/10/23 04:49:57;;;;;;;3.87;1.90;;;11.00;99.90;;;;;;5020372;28;20735;-74
2023/10/23 04:52:23;;;;;;;4.73;1.87;;;11.00;99.90;;;;;;5015993;28;20209;-75
2023/10/23 04:54:50;;;;;;;2.57;1.77;;;11.00;99.90;;;;;;5016576;28;20221;-75
2023/10/23 04:57:15;;;;;;;3.03;2.00;;;11.00;99.90;;;;;;5021503;28;20634;-77
2023/10/23 04:59:41;;;;;;;4.30;2.13;;;11.00;99.90;;;;;;5017438;28;20358;-75
2023/10/23 05:02:07;;;;;;;2.93;1.93;;;11.00;99.90;;;;;;5007535;28;20217;-75
2023/10/23 05:04:32;;;;;;;3.70;1.87;;;10.90;99.90;;;;;;5016857;28;20225;-76
2023/10/23 05:06:59;;;;;;;2.63;1.83;;;10.90;99.90;;;;;;5015620;28;20227;-79
2023/10/23 05:09:24;;;;;;;2.30;2.10;;;10.90;99.90;;;;;;5020423;28;20216;-77
2023/10/23 05:11:50;;;;;;;3.17;2.17;;;10.90;99.90;;;;;;5020567;28;20205;-74
2023/10/23 05:14:16;;;;;;;3.43;2.10;;;10.90;99.90;;;;;;5023254;28;20204;-75
2023/10/23 05:16:41;;;;;;;3.90;2.27;;;10.80;99.90;;;;;;5021474;28;20217;-75
2023/10/23 05:19:08;;;;;;;3.60;2.13;;;10.80;99.90;;;;;;5024222;28;20828;-77
2023/10/23 05:21:34;;;;;;;4.47;2.03;;;10.80;99.90;;;;;;5017097;28;20219;-73
2023/10/23 05:23:59;;;;;;;3.93;2.20;;;10.80;99.90;;;;;;5017385;28;20188;-75
2023/10/23 05:26:25;;;;;;;4.63;2.10;;;10.70;99.90;;;;;;5010999;28;20564;-76
2023/10/23 05:28:51;;;;;;;6.63;2.23;;;10.70;99.90;;;;;;5018967;28;20220;-74
2023/10/23 05:31:17;;;;;;;3.80;2.27;;;10.70;99.90;;;;;;5019400;28;20212;-74
2023/10/23 05:33:43;;;;;;;6.73;2.57;;;10.70;99.90;;;;;;5019760;28;20619;-75
2023/10/23 05:36:09;;;;;;;3.93;2.03;;;10.70;99.90;;;;;;5017195;28;20176;-79
2023/10/23 05:38:36;;;;;;;3.67;2.50;;;10.70;99.90;;;;;;5015438;28;20623;-74
2023/10/23 05:41:02;;;;;;;3.23;2.00;;;10.70;99.90;;;;;;5020407;28;20208;-77
2023/10/23 05:43:28;;;;;;;2.97;2.07;;;10.70;99.90;;;;;;5021249;28;20701;-78
2023/10/23 05:45:55;;;;;;;5.00;2.70;;;10.70;99.90;;;;;;5018939;28;20227;-75
2023/10/23 05:48:20;;;;;;;5.27;2.40;;;10.70;99.90;;;;;;5021052;28;20223;-76
2023/10/23 05:50:55;;;;;;;4.23;2.20;;;10.70;99.90;;;;;;5020007;28;20542;-77
2023/10/23 05:53:21;;;;;;;3.80;2.60;;;10.70;99.90;;;;;;5022088;28;20654;-75
2023/10/23 05:55:46;;;;;;;5.43;3.00;;;10.80;99.90;;;;;;5018191;28;20248;-75
2023/10/23 05:58:12;;;;;;;3.77;2.40;;;10.80;99.90;;;;;;5023982;28;20294;-75
2023/10/23 06:00:37;;;;;;;4.43;2.60;;;10.80;99.90;;;;;;5016874;28;20227;-73
2023/10/23 06:03:03;;;;;;;4.53;2.50;;;10.80;99.90;;;;;;5035564;28;20211;-74
2023/10/23 06:05:29;;;;;;;5.80;2.80;;;10.80;99.90;;;;;;5020234;28;20188;-82
2023/10/23 06:07:54;;;;;;;4.00;2.83;;;10.90;99.90;;;;;;5018847;28;20664;-74
2023/10/23 06:10:20;;;;;;;3.97;2.83;;;10.90;99.90;;;;;;5016496;28;20208;-77
2023/10/23 06:12:45;;;;;;;4.10;2.93;;;11.00;99.90;;;;;;5011020;28;20295;-75
2023/10/23 06:15:11;;;;;;;6.97;2.93;;;11.10;99.90;;;;;;5014143;28;24964;-77
2023/10/23 06:17:37;;;;;;;6.20;3.33;;;11.60;99.90;;;;;;5018999;28;20192;-75
2023/10/23 06:20:03;;;;;;;4.20;2.27;;;12.00;99.90;;;;;;5006794;28;20217;-75
2023/10/23 06:22:28;;;;;;;6.28;3.00;;;12.60;99.90;;;;;;5011011;28;20224;-75
2023/10/23 06:24:54;;;;;;;4.03;2.50;;;12.80;99.90;;;;;;5018919;28;20740;-74
2023/10/23 06:27:20;;;;;;;6.78;2.25;;;12.60;99.90;;;;;;5020353;28;20228;-76
2023/10/23 06:29:48;;;;;;;4.75;2.22;;;12.50;99.90;;;;;;5017944;28;20722;-74
2023/10/23 06:32:15;;;;;;;3.28;2.20;;;12.30;99.90;;;;;;5005479;28;20247;-75
2023/10/23 06:34:40;;;;;;;3.05;2.22;;;12.10;99.90;;;;;;5020504;28;20287;-73
2023/10/23 06:37:07;;;;;;;3.55;2.60;;;11.90;99.90;;;;;;5021323;28;20304;-79
2023/10/23 06:39:33;;;;;;;8.23;2.77;;;11.80;99.90;;;;;;5016368;28;20229;-76
2023/10/23 06:41:59;;;;;;;4.67;2.40;;;11.70;99.90;;;;;;5018214;28;20236;-75
2023/10/23 06:44:24;;;;;;;3.43;2.90;;;11.70;99.90;;;;;;5019269;28;20197;-75
2023/10/23 06:46:50;;;;;;;4.50;2.42;;;11.80;99.90;;;;;;5022588;28;20239;-75
2023/10/23 06:49:16;;;;;;;4.05;2.22;;;11.80;99.90;;;;;;5017925;28;20286;-75
2023/10/23 06:51:42;;;;;;;4.40;2.93;;;11.80;99.90;;;;;;5011605;28;20263;-73
2023/10/23 06:54:07;;;;;;;5.57;3.08;;;11.80;99.90;;;;;;5015696;28;20193;-75
2023/10/23 06:56:33;;;;;;;4.63;3.30;;;11.80;99.90;;;;;;5016910;28;20212;-75
2023/10/23 06:58:59;;;;;;;5.57;3.30;;;11.80;99.90;;;;;;5016429;28;20255;-75
2023/10/23 07:01:24;;;;;;;3.92;2.88;;;11.80;99.90;;;;;;5018654;28;20230;-75
2023/10/23 07:03:50;;;;;;;4.82;2.78;;;11.90;99.90;;;;;;5008634;28;20251;-75
2023/10/23 07:06:16;;;;;;;4.80;2.80;;;11.90;99.90;;;;;;5009602;28;20243;-76
2023/10/23 07:08:41;;;;;;;5.43;3.33;;;11.90;99.90;;;;;;5014322;28;20258;-76
2023/10/23 07:11:15;;;;;;;5.28;3.15;;;11.80;99.90;;;;;;5007111;28;20251;-75
2023/10/23 07:13:40;;;;;;;6.22;3.20;;;11.80;99.90;;;;;;5014302;28;20208;-76
2023/10/23 07:16:06;;;;;;;11.50;3.60;;;11.80;99.90;;;;;;5013367;28;20258;-76
2023/10/23 07:18:32;;;;;;;5.68;3.80;;;11.80;99.90;;;;;;5010308;28;20204;-76
2023/10/23 07:21:01;;;;;;;8.20;4.20;;;11.90;99.90;;;;;;5011381;28;20188;-75
2023/10/23 07:23:31;;;;;;;7.23;3.60;;;12.00;99.90;;;;;;5010557;28;20600;-77
2023/10/23 07:26:03;;;;;;;5.38;3.20;;;12.10;99.90;;;;;;5014237;28;20205;-75
2023/10/23 07:28:29;;;;;;;7.27;3.47;;;12.20;99.90;;;;;;5015015;28;20742;-77
2023/10/23 07:30:54;;;;;;;4.55;3.13;;;12.30;99.90;;;;;;5010743;28;20301;-76
2023/10/23 07:33:20;;;;;;;5.75;3.20;;;12.40;99.90;;;;;;5012382;28;20209;-76
2023/10/23 07:35:45;;;;;;;4.55;3.33;;;12.30;99.90;;;;;;5010206;28;20187;-75
2023/10/23 07:38:11;;;;;;;4.03;3.25;;;12.30;99.90;;;;;;5013963;28;20733;-77
2023/10/23 07:40:43;;;;;;;6.30;3.22;;;12.40;99.90;;;;;;5015038;28;20209;-76
2023/10/23 07:43:10;;;;;;;4.88;3.30;;;12.40;99.90;;;;;;5011861;28;20686;-77
2023/10/23 07:45:39;;;;;;;4.93;3.70;;;12.40;99.90;;;;;;5012719;28;20215;-77
2023/10/23 07:48:05;;;;;;;4.40;2.88;;;12.40;99.90;;;;;;5014165;28;20295;-77
2023/10/23 07:50:35;;;;;;;4.63;3.70;;;12.40;99.90;;;;;;5011694;28;20200;-75
2023/10/23 07:53:00;;;;;;;6.47;4.10;;;12.40;99.90;;;;;;5016207;28;20694;-77
2023/10/23 07:55:26;;;;;;;7.50;3.95;;;12.50;99.90;;;;;;5011917;28;20306;-77
2023/10/23 07:57:52;;;;;;;8.30;3.60;;;12.50;99.90;;;;;;5012558;28;20235;-77
2023/10/23 08:00:18;;;;;;;6.60;3.63;;;12.50;99.90;;;;;;5012734;28;20717;-77
2023/10/23 08:02:43;;;;;;;7.55;3.70;;;12.50;99.90;;;;;;5013198;28;20197;-77
2023/10/23 08:05:09;;;;;;;5.78;3.58;;;12.50;99.90;;;;;;5016397;28;20295;-77
2023/10/23 08:07:35;;;;;;;5.57;3.25;;;12.50;99.90;;;;;;5018491;28;20243;-77
2023/10/23 08:10:00;;;;;;;8.18;3.60;;;12.50;99.90;;;;;;5018271;28;20243;-76
2023/10/23 08:12:26;;;;;;;4.38;3.15;;;12.60;99.90;;;;;;5017985;28;20294;-77
2023/10/23 08:14:51;;;;;;;6.53;3.40;;;12.60;99.90;;;;;;5019447;28;20177;-77
2023/10/23 08:17:17;;;;;;;5.07;3.50;;;12.60;99.90;;;;;;5012579;28;20205;-79
2023/10/23 08:19:42;;;;;;;5.68;3.30;;;12.70;99.90;;;;;;5013007;28;20247;-77
2023/10/23 08:22:09;;;;;;;5.63;3.25;;;12.70;99.90;;;;;;5013620;28;20220;-77
2023/10/23 08:24:34;;;;;;;5.20;3.67;;;12.70;99.90;;;;;;5015524;28;20220;-77
2023/10/23 08:27:00;;;;;;;4.85;3.58;;;12.70;99.90;;;;;;5015423;28;20204;-78
2023/10/23 08:29:26;;;;;;;4.68;3.47;;;12.80;99.90;;;;;;5015338;28;20694;-78
2023/10/23 08:31:53;;;;;;;5.85;3.47;;;12.80;99.90;;;;;;5023127;28;20232;-77
2023/10/23 08:34:21;;;;;;;5.47;3.03;;;12.80;99.90;;;;;;5016520;28;20224;-77
2023/10/23 08:36:48;;;;;;;4.07;3.03;;;12.80;99.90;;;;;;5009553;28;20221;-79
2023/10/23 08:39:13;;;;;;;4.07;3.35;;;12.90;99.90;;;;;;5008773;28;20225;-77
2023/10/23 08:41:39;;;;;;;5.60;3.65;;;12.90;99.90;;;;;;5019607;28;20176;-78
2023/10/23 08:44:05;;;;;;;7.30;4.55;;;12.90;99.90;;;;;;5017537;28;20561;-77
2023/10/23 08:46:33;;;;;;;7.47;4.07;;;12.90;99.90;;;;;;5022430;28;20219;-77
2023/10/23 08:49:00;;;;;;;7.47;4.20;;;13.00;99.90;;;;;;5019377;28;20617;-78
2023/10/23 08:51:26;;;;;;;8.15;4.05;;;13.00;99.90;;;;;;5021368;28;20211;-78
2023/10/23 08:54:00;;;;;;;5.32;3.80;;;13.00;99.90;;;;;;5019500;28;20307;-79
2023/10/23 08:56:26;;;;;;;5.50;3.67;;;13.00;99.90;;;;;;5008999;28;20200;-77
2023/10/23 08:58:58;;;;;;;6.38;4.22;;;13.00;99.90;;;;;;5019696;28;20228;-77
2023/10/23 09:01:25;;;;;;;6.55;4.20;;;13.00;99.90;;;;;;5024151;28;20204;-77
2023/10/23 09:03:50;;;;;;;8.05;3.90;;;13.00;99.90;;;;;;5019738;28;20710;-78
2023/10/23 09:06:18;;;;;;;8.88;3.70;;;13.00;99.90;;;;;;5017482;28;21213;-77
2023/10/23 09:08:44;;;;;;;8.35;4.00;;;13.10;99.90;;;;;;5039481;28;20200;-78
2023/10/23 09:11:10;;;;;;;6.40;3.75;;;13.10;99.90;;;;;;5019786;28;20216;-78
2023/10/23 09:13:40;;;;;;;7.55;4.13;;;13.20;99.90;;;;;;5021782;28;20209;-78
2023/10/23 09:16:08;;;;;;;8.60;3.67;;;13.30;99.90;;;;;;5006610;28;20222;-77
2023/10/23 09:18:34;;;;;;;6.00;4.00;;;13.40;99.90;;;;;;5021841;28;20296;-77
2023/10/23 09:21:01;;;;;;;4.78;3.58;;;13.50;99.90;;;;;;5018441;28;20184;-78
2023/10/23 09:23:28;;;;;;;5.45;3.75;;;13.60;99.90;;;;;;5019452;28;20205;-77
2023/10/23 09:25:58;;;;;;;6.32;3.90;;;13.70;99.90;;;;;;5019810;28;20207;-77
2023/10/23 09:28:25;;;;;;;7.53;3.70;;;13.70;99.90;;;;;;5019095;28;20213;-78
2023/10/23 09:30:51;;;;;;;5.15;3.60;;;13.80;99.90;;;;;;5019749;28;20296;-78
2023/10/23 09:33:17;;;;;;;7.80;3.65;;;13.80;99.90;;;;;;5020692;28;20319;-78
2023/10/23 09:35:43;;;;;;;4.43;3.53;;;13.80;99.90;;;;;;5009730;28;20206;-77
2023/10/23 09:38:12;;;;;;;5.80;3.90;;;13.90;99.90;;;;;;5016471;28;20850;-77
2023/10/23 09:40:38;;;;;;;6.55;3.47;;;14.00;99.90;;;;;;5016489;28;20208;-77
2023/10/23 09:43:06;;;;;;;4.70;3.70;;;14.00;99.90;;;;;;5018398;28;20255;-77
2023/10/23 09:45:32;;;;;;;6.93;4.10;;;14.10;99.90;;;;;;5017672;28;20284;-77
2023/10/23 09:48:01;;;;;;;6.47;3.63;;;14.10;99.90;;;;;;5021102;28;20203;-77
2023/10/23 09:50:28;;;;;;;6.72;3.88;;;14.10;99.90;;;;;;5007515;28;20270;-77
2023/10/23 09:52:56;;;;;;;7.35;3.95;;;14.20;99.90;;;;;;5015281;28;20830;-77
2023/10/23 09:55:27;;;;;;;7.82;3.83;;;14.30;99.90;;;;;;5015766;28;20205;-78
2023/10/23 09:57:54;;;;;;;8.32;4.15;;;14.50;99.90;;;;;;5020294;28;20652;-78
2023/10/23 10:00:20;;;;;;;6.88;3.78;;;14.80;99.90;;;;;;5018557;28;20247;-78
2023/10/23 10:02:56;;;;;;;7.63;4.20;;;15.00;99.90;;;;;;5021543;28;20181;-77
2023/10/23 10:05:33;;;;;;;7.00;3.75;;;15.30;99.90;;;;;;5019873;28;20737;-79
2023/10/23 10:08:08;;;;;;;4.38;3.72;;;15.30;99.90;;;;;;5004711;28;20224;-78
2023/10/23 10:10:36;;;;;;;8.25;4.13;;;15.30;99.90;;;;;;5011301;28;20212;-77
2023/10/23 10:13:03;;;;;;;7.65;4.05;;;15.40;99.90;;;;;;5015183;28;20300;-78
2023/10/23 10:15:31;;;;;;;8.68;4.18;;;15.50;99.90;;;;;;5020610;28;20641;-78
2023/10/23 10:17:57;;;;;;;7.35;4.20;;;15.60;99.90;;;;;;5016733;28;20639;-77
2023/10/23 10:20:23;;;;;;;6.85;3.72;;;15.60;99.90;;;;;;5020511;28;20184;-77
2023/10/23 10:22:58;;;;;;;6.22;4.45;;;15.70;99.90;;;;;;5018332;28;20222;-79
2023/10/23 10:25:25;;;;;;;6.40;4.07;;;15.60;99.90;;;;;;5018188;28;20247;-76
2023/10/23 10:27:58;;;;;;;5.13;3.67;;;15.50;99.90;;;;;;5016453;28;20277;-77
2023/10/23 10:30:48;;;;;;;5.20;3.90;;;15.40;99.90;;;;;;5014463;28;20232;-76
2023/10/23 10:33:25;;;;;;;7.53;4.50;;;15.60;99.90;;;;;;5008487;28;20220;-80
2023/10/23 10:35:59;;;;;;;5.85;4.13;;;15.40;99.90;;;;;;5015326;28;20188;-77
2023/10/23 10:38:27;;;;;;;4.85;3.90;;;15.40;99.90;;;;;;5017552;28;20209;-78
2023/10/23 10:41:00;;;;;;;5.38;4.10;;;15.40;99.90;;;;;;5019735;28;20274;-76
2023/10/23 10:43:34;;;;;;;5.13;3.58;;;15.50;99.90;;;;;;5017992;28;20209;-78
2023/10/23 10:46:18;;;;;;;5.78;3.80;;;15.60;99.90;;;;;;5018678;28;20212;-76
2023/10/23 10:48:45;;;;;;;7.20;4.00;;;15.50;99.90;;;;;;5016659;28;20227;-76
2023/10/23 10:51:19;;;;;;;3.83;3.42;;;15.50;99.90;;;;;;5014961;28;20185;-77
2023/10/23 10:53:53;;;;;;;4.25;2.72;;;15.40;99.90;;;;;;5011312;28;20177;-75
2023/10/23 10:56:19;;;;;;;4.70;3.15;;;15.20;99.90;;;;;;5023857;28;20231;-75
2023/10/23 10:58:45;;;;;;;4.22;3.00;;;15.20;99.90;;;;;;5015591;28;20711;-73
2023/10/23 11:01:11;;;;;;;6.10;3.78;;;15.20;99.90;;;;;;5017723;28;20649;-74
2023/10/23 11:03:37;;;;;;;4.57;3.70;;;15.20;99.90;;;;;;5016993;28;20307;-74
2023/10/23 11:06:06;;;;;;;4.18;3.22;;;15.10;99.90;;;;;;5005277;28;20169;-74
2023/10/23 11:08:32;;;;;;;4.15;3.30;;;15.20;99.90;;;;;;5023746;28;20295;-74
2023/10/23 11:11:01;;;;;;;6.47;3.30;;;15.30;99.90;;;;;;5010753;28;20300;-76
2023/10/23 11:13:27;;;;;;;6.43;3.40;;;15.30;99.90;;;;;;5008842;28;20236;-75
2023/10/23 11:15:56;;;;;;;6.00;3.80;;;15.30;99.90;;;;;;5007866;28;20288;-76
2023/10/23 11:18:22;;;;;;;3.80;3.20;;;15.40;99.90;;;;;;5009562;28;20209;-81
2023/10/23 11:20:48;;;;;;;5.10;3.20;;;15.30;99.90;;;;;;5012744;28;20185;-74
2023/10/23 11:23:17;;;;;;;6.70;3.35;;;15.30;99.90;;;;;;5014439;28;20954;-74
2023/10/23 11:25:47;;;;;;;4.43;3.88;;;15.30;99.90;;;;;;5014711;28;20863;-74
2023/10/23 11:28:12;;;;;;;5.20;3.33;;;15.40;99.90;;;;;;5014100;28;20217;-74
2023/10/23 11:30:57;;;;;;;7.25;4.28;;;15.30;99.90;;;;;;5017482;28;20635;-73
2023/10/23 11:33:22;;;;;;;5.95;3.70;;;15.30;99.90;;;;;;5017266;28;20279;-74
2023/10/23 11:35:48;;;;;;;4.15;3.45;;;15.20;99.90;;;;;;5009088;28;20196;-74
2023/10/23 11:38:19;;;;;;;6.28;3.53;;;15.10;99.90;;;;;;5010457;28;20213;-73
2023/10/23 11:40:45;;;;;;;3.65;3.13;;;15.20;99.90;;;;;;5007605;28;20225;-74
2023/10/23 11:43:13;;;;;;;4.55;3.83;;;15.10;99.90;;;;;;5012353;28;20703;-74
2023/10/23 11:45:40;;;;;;;5.07;3.78;;;15.00;99.90;;;;;;5014791;28;20227;-74
2023/10/23 11:48:07;;;;;;;5.57;3.58;;;15.00;99.90;;;;;;5011288;28;20203;-74
2023/10/23 11:50:35;;;;;;;8.52;4.13;;;15.00;99.90;;;;;;5012625;28;20227;-75
2023/10/23 11:53:03;;;;;;;5.38;3.45;;;14.90;99.90;;;;;;5014406;28;20617;-74
2023/10/23 11:55:29;;;;;;;4.97;3.40;;;15.00;99.90;;;;;;5013834;28;20295;-74
2023/10/23 11:57:55;;;;;;;4.13;3.60;;;15.10;99.90;;;;;;5022141;28;20228;-74
2023/10/23 12:00:22;;;;;;;6.68;3.80;;;15.30;99.90;;;;;;5009294;28;20213;-73
2023/10/23 12:02:49;;;;;;;4.53;3.70;;;15.40;99.90;;;;;;5010141;28;20562;-73
2023/10/23 12:05:22;;;;;;;6.70;3.55;;;15.40;99.90;;;;;;5010007;28;20232;-73
2023/10/23 12:07:55;;;;;;;5.45;3.53;;;15.10;99.90;;;;;;5015091;28;20220;-76
2023/10/23 12:10:25;;;;;;;4.93;3.95;;;15.10;99.90;;;;;;4999907;28;20295;-74
2023/10/23 12:12:52;;;;;;;6.07;3.42;;;15.20;99.90;;;;;;5011573;28;20208;-74
2023/10/23 12:15:18;;;;;;;4.43;3.35;;;15.30;99.90;;;;;;5017599;28;20918;-74
2023/10/23 12:17:44;;;;;;;4.43;3.38;;;15.20;99.90;;;;;;5018507;28;20231;-76
2023/10/23 12:20:14;;;;;;;4.78;3.38;;;15.20;99.90;;;;;;5025792;28;20707;-75
2023/10/23 12:22:43;;;;;;;4.22;3.22;;;15.20;99.90;;;;;;5023350;28;20811;-72
2023/10/23 12:25:09;;;;;;;4.25;3.10;;;15.30;99.90;;;;;;5024426;28;20208;-70
2023/10/23 12:27:36;;;;;;;5.15;3.03;;;15.40;99.90;;;;;;5024101;28;20217;-74
2023/10/23 12:30:04;;;;;;;5.10;3.08;;;15.50;99.90;;;;;;5016763;28;20687;-71
2023/10/23 12:32:33;;;;;;;6.75;2.83;;;15.60;99.90;;;;;;5018719;28;20559;-71
2023/10/23 12:34:59;;;;;;;3.47;2.58;;;15.80;99.90;;;;;;5018974;28;20216;-71
2023/10/23 12:37:28;;;;;;;3.58;2.33;;;15.90;99.90;;;;;;5014338;28;20707;-72
2023/10/23 12:39:54;;;;;;;3.10;2.72;;;15.70;99.90;;;;;;5013432;28;20243;-72
2023/10/23 12:42:21;;;;;;;3.70;2.58;;;15.70;99.90;;;;;;5013594;28;20302;-70
2023/10/23 12:44:56;;;;;;;2.95;2.65;;;15.70;99.90;;;;;;5018533;28;20248;-73
2023/10/23 12:47:24;;;;;;;3.08;2.78;;;15.60;99.90;;;;;;5020027;28;20208;-74